Time;durP1;ratioP1;P1;durP2;ratioP2;P2;SDS_P1;SDS_P2;PMS_P1;PMS_P2;Temp;Humidity;BMP_temperature;BMP_pressure;BME280_temperature;BME280_humidity;BME280_pressure;Samples;Min_cycle;Max_cycle;Signal;HPM_P1;HPM_P2
2022/06/29 00:00:43;;;;;;;;;1.00;1.00;;;;;20.65;45.90;101220.13;5019022;28;46703;-92
2022/06/29 00:03:09;;;;;;;;;1.00;1.00;;;;;20.69;46.36;101222.47;5035370;28;45683;-92
2022/06/29 00:05:34;;;;;;;;;3.00;2.00;;;;;20.71;45.96;101226.81;5038579;28;45290;-92
2022/06/29 00:07:59;;;;;;;;;1.50;1.50;;;;;20.75;46.59;101228.34;5002152;28;45273;-92
2022/06/29 00:10:25;;;;;;;;;2.00;1.75;;;;;20.73;46.95;101225.78;5002751;28;45360;-92
2022/06/29 00:12:51;;;;;;;;;1.50;1.50;;;;;20.67;47.00;101226.16;5002575;28;47391;-93
2022/06/29 00:15:18;;;;;;;;;3.00;2.00;;;;;20.65;46.65;101220.13;5000815;28;45638;-92
2022/06/29 00:17:44;;;;;;;;;3.00;2.00;;;;;20.61;46.75;101230.03;4999232;28;45359;-92
2022/06/29 00:20:10;;;;;;;;;2.00;2.00;;;;;20.60;47.41;101223.06;5001035;28;45406;-93
2022/06/29 00:22:36;;;;;;;;;1.50;1.00;;;;;20.59;46.83;101221.31;5001394;28;46899;-93
2022/06/29 00:25:01;;;;;;;;;3.50;2.00;;;;;20.58;47.33;101226.72;5017933;28;45295;-92
2022/06/29 00:27:27;;;;;;;;;2.00;2.00;;;;;20.55;47.11;101226.91;5018238;28;45423;-92
2022/06/29 00:29:53;;;;;;;;;2.75;2.50;;;;;20.55;46.98;101219.81;5018938;28;53861;-92
2022/06/29 00:32:18;;;;;;;;;4.50;1.50;;;;;20.57;47.09;101214.44;5017842;28;46585;-93
2022/06/29 00:34:44;;;;;;;;;2.50;2.00;;;;;20.60;47.12;101211.63;5017774;28;45319;-92
2022/06/29 00:37:10;;;;;;;;;2.00;1.25;;;;;20.60;47.71;101219.56;5018068;28;45352;-94
2022/06/29 00:39:35;;;;;;;;;4.00;2.00;;;;;20.55;48.80;101221.63;5001662;28;45197;-93
2022/06/29 00:42:01;;;;;;;;;4.75;2.00;;;;;20.47;48.24;101217.66;5033526;28;69088;-92
2022/06/29 00:44:27;;;;;;;;;1.25;1.25;;;;;20.41;48.27;101215.41;5017785;28;45274;-92
2022/06/29 00:46:57;;;;;;;;;2.00;2.00;;;;;20.40;47.89;101211.06;5018899;28;45243;-93
2022/06/29 00:49:25;;;;;;;;;1.00;1.00;;;;;20.43;48.06;101207.38;5017489;28;45458;-90
2022/06/29 00:52:06;;;;;;;;;4.25;3.25;;;;;20.44;47.89;101203.78;5010642;28;46953;-92
2022/06/29 00:54:43;;;;;;;;;2.75;2.00;;;;;20.43;48.23;101199.44;4993663;28;45703;-92
2022/06/29 00:57:13;;;;;;;;;3.00;2.00;;;;;20.40;48.46;101204.94;5017401;28;45260;-92
2022/06/29 00:59:47;;;;;;;;;3.00;1.00;;;;;20.38;48.47;101201.53;5001121;28;45490;-93
2022/06/29 01:02:14;;;;;;;;;2.50;2.00;;;;;20.39;49.07;101200.59;4998067;28;47300;-92
2022/06/29 01:04:39;;;;;;;;;1.50;1.50;;;;;20.39;48.33;101197.94;5015119;28;45491;-92
2022/06/29 01:07:05;;;;;;;;;4.50;2.00;;;;;20.38;48.62;101204.19;5017550;28;45258;-92
2022/06/29 01:09:31;;;;;;;;;4.00;2.00;;;;;20.37;48.25;101197.19;5016119;28;45365;-92
2022/06/29 01:11:58;;;;;;;;;2.00;2.00;;;;;20.37;48.31;101192.75;5013851;28;47250;-93
2022/06/29 01:14:24;;;;;;;;;3.50;1.25;;;;;20.37;48.50;101197.19;4998236;28;45254;-92
2022/06/29 01:16:49;;;;;;;;;1.50;1.25;;;;;20.38;48.54;101199.75;5014313;28;45327;-92
2022/06/29 01:19:15;;;;;;;;;2.50;2.50;;;;;20.37;48.54;101203.31;5013590;28;45304;-93
2022/06/29 01:21:42;;;;;;;;;4.00;2.50;;;;;20.36;48.70;101206.09;5016804;28;51195;-93
2022/06/29 01:24:08;;;;;;;;;5.00;1.75;;;;;20.33;48.67;101195.69;5017458;28;45627;-92
2022/06/29 01:26:33;;;;;;;;;3.50;2.25;;;;;20.29;48.96;101197.69;5000917;28;45194;-92
2022/06/29 01:28:58;;;;;;;;;2.00;2.00;;;;;20.22;49.79;101199.84;5009839;28;45319;-93
2022/06/29 01:31:24;;;;;;;;;3.50;2.00;;;;;20.13;49.25;101195.13;5008078;28;48138;-92
2022/06/29 01:33:49;;;;;;;;;2.75;2.75;;;;;20.08;49.30;101191.94;5018580;28;45496;-93
2022/06/29 01:36:16;;;;;;;;;3.00;2.00;;;;;20.05;50.03;101194.75;5015687;28;45369;-93
2022/06/29 01:38:42;;;;;;;;;1.75;1.75;;;;;20.01;50.09;101198.53;5017410;28;45502;-93
2022/06/29 01:41:10;;;;;;;;;5.25;2.00;;;;;19.96;49.70;101196.16;5016784;28;48096;-93
2022/06/29 01:43:35;;;;;;;;;2.00;2.00;;;;;19.89;50.08;101189.53;5029677;28;45817;-93
2022/06/29 01:46:01;;;;;;;;;2.00;2.00;;;;;19.84;51.06;101200.41;5009356;28;45355;-92
2022/06/29 01:48:26;;;;;;;;;4.00;2.00;;;;;19.80;50.12;101201.53;5013874;28;45307;-93
2022/06/29 01:50:52;;;;;;;;;3.00;2.00;;;;;19.73;50.13;101203.69;5013172;28;47069;-91
2022/06/29 01:53:17;;;;;;;;;4.00;2.25;;;;;19.71;50.35;101197.63;5005055;28;45190;-92
2022/06/29 01:55:44;;;;;;;;;3.50;2.75;;;;;19.71;51.38;101207.34;5015007;28;45262;-93
2022/06/29 01:58:09;;;;;;;;;2.00;1.75;;;;;19.66;50.48;101196.19;5004178;28;45310;-91
2022/06/29 02:00:35;;;;;;;;;2.00;2.00;;;;;19.60;51.33;101197.41;4984472;28;68084;-92
2022/06/29 02:03:00;;;;;;;;;2.25;2.25;;;;;19.58;50.26;101193.19;4999915;28;45295;-92
2022/06/29 02:05:25;;;;;;;;;2.00;2.00;;;;;19.59;50.70;101197.50;4999497;28;45448;-92
2022/06/29 02:07:51;;;;;;;;;3.00;2.50;;;;;19.59;50.66;101197.50;4999845;28;58668;-92
2022/06/29 02:10:16;;;;;;;;;2.25;1.75;;;;;19.57;52.07;101202.03;5026916;28;46870;-92
2022/06/29 02:12:41;;;;;;;;;4.25;3.00;;;;;19.50;52.01;101196.25;4999705;28;46898;-92
2022/06/29 02:15:08;;;;;;;;;2.00;2.00;;;;;19.43;51.37;101198.41;5012497;28;59047;-92
2022/06/29 02:17:34;;;;;;;;;2.00;2.00;;;;;19.40;51.40;101189.84;5021169;28;45310;-92
2022/06/29 02:19:59;;;;;;;;;3.00;2.00;;;;;19.41;51.65;101188.88;5012999;28;47270;-92
2022/06/29 02:22:24;;;;;;;;;1.00;1.00;;;;;19.41;51.33;101192.38;4999930;28;48459;-91
2022/06/29 02:24:50;;;;;;;;;3.00;1.25;;;;;19.37;51.70;101195.28;5016328;28;47576;-92
2022/06/29 02:27:15;;;;;;;;;1.75;1.75;;;;;19.29;51.47;101193.94;5016292;28;45469;-92
2022/06/29 02:29:41;;;;;;;;;2.00;2.00;;;;;19.27;52.34;101185.25;4999518;28;47061;-92
2022/06/29 02:34:50;;;;;;;;;2.00;2.00;;;;;19.19;51.63;101189.31;5016005;28;45318;-92
2022/06/29 02:37:16;;;;;;;;;3.00;2.00;;;;;19.17;52.48;101181.47;5016743;28;45467;-91
2022/06/29 02:39:42;;;;;;;;;2.75;2.00;;;;;19.11;52.57;101192.34;5016027;28;48080;-92
2022/06/29 02:42:09;;;;;;;;;3.50;2.00;;;;;19.09;52.09;101181.91;5025491;28;45781;-92
2022/06/29 02:44:35;;;;;;;;;5.00;3.25;;;;;19.07;52.70;101183.78;5019729;28;45372;-92
2022/06/29 02:47:00;;;;;;;;;2.00;2.00;;;;;19.01;52.20;101180.66;5020008;28;45481;-93
2022/06/29 02:49:26;;;;;;;;;4.00;2.00;;;;;19.03;52.51;101184.06;5021215;28;47104;-91
2022/06/29 02:51:51;;;;;;;;;2.50;2.00;;;;;19.00;53.47;101178.94;5022387;28;45373;-93
2022/06/29 02:54:17;;;;;;;;;3.00;2.00;;;;;18.92;53.14;101182.00;5015824;28;45347;-91
2022/06/29 02:56:42;;;;;;;;;3.00;3.00;;;;;18.84;53.00;101187.72;5005264;28;45402;-92
2022/06/29 02:59:07;;;;;;;;;3.00;3.00;;;;;18.80;52.86;101182.69;5019090;28;63125;-92
2022/06/29 03:01:33;;;;;;;;;4.25;2.25;;;;;18.80;53.00;101177.44;5023658;28;59195;-92
2022/06/29 03:03:58;;;;;;;;;4.75;3.25;;;;;18.80;53.48;101178.28;5004976;28;45845;-92
2022/06/29 03:06:23;;;;;;;;;4.50;3.00;;;;;18.75;53.39;101172.41;5004477;28;45326;-92
2022/06/29 03:08:49;;;;;;;;;3.00;3.00;;;;;18.71;52.92;101178.78;5024780;28;50529;-92
2022/06/29 03:11:14;;;;;;;;;6.50;3.75;;;;;18.71;53.49;101178.78;5006950;28;48679;-92
2022/06/29 03:13:40;;;;;;;;;2.50;2.00;;;;;18.68;54.06;101177.16;5006274;28;45256;-93
2022/06/29 03:16:05;;;;;;;;;3.75;3.00;;;;;18.65;54.06;101177.34;5020664;28;45261;-92
2022/06/29 03:18:30;;;;;;;;;4.75;4.00;;;;;18.58;54.21;101171.53;5040788;28;55104;-92
2022/06/29 03:20:56;;;;;;;;;6.75;3.25;;;;;18.52;54.37;101181.59;5039965;28;45304;-92
2022/06/29 03:23:21;;;;;;;;;2.00;2.00;;;;;18.45;54.12;101185.50;5038075;28;51344;-91
2022/06/29 03:25:47;;;;;;;;;3.00;3.00;;;;;18.41;54.52;101178.72;5019678;28;45850;-92
2022/06/29 03:28:12;;;;;;;;;3.00;3.00;;;;;18.39;54.32;101184.06;5024098;28;48164;-91
2022/06/29 03:30:38;;;;;;;;;2.50;2.50;;;;;18.39;54.64;101186.69;5031925;28;48372;-91
2022/06/29 03:33:03;;;;;;;;;3.75;3.00;;;;;18.35;54.77;101179.91;5003635;28;56470;-92
2022/06/29 03:35:28;;;;;;;;;4.00;2.00;;;;;18.36;54.75;101171.03;5040121;28;55004;-92
2022/06/29 03:37:54;;;;;;;;;5.00;2.00;;;;;18.38;54.84;101170.00;5004827;28;71529;-93
2022/06/29 03:40:19;;;;;;;;;2.00;1.25;;;;;18.39;54.64;101170.88;5022872;28;45297;-92
2022/06/29 03:42:44;;;;;;;;;5.25;4.75;;;;;18.36;54.22;101168.41;5017422;28;45386;-92
2022/06/29 03:45:10;;;;;;;;;6.00;3.50;;;;;18.32;54.61;101166.88;5036895;28;45375;-93
2022/06/29 03:47:35;;;;;;;;;5.00;4.00;;;;;18.28;54.48;101168.81;5003817;28;70351;-93
2022/06/29 03:50:01;;;;;;;;;3.75;3.00;;;;;18.29;54.79;101172.31;5003627;28;45363;-93
2022/06/29 03:52:26;;;;;;;;;1.75;1.75;;;;;18.27;54.48;101166.25;5018591;28;45304;-92
2022/06/29 03:54:51;;;;;;;;;5.00;3.00;;;;;18.23;54.20;101162.94;5017494;28;51182;-93
2022/06/29 03:57:17;;;;;;;;;3.00;1.75;;;;;18.25;54.54;101168.13;5018411;28;48573;-91
2022/06/29 03:59:42;;;;;;;;;6.00;3.50;;;;;18.22;55.14;101171.81;5019649;28;55328;-95
2022/06/29 04:02:07;;;;;;;;;3.50;3.00;;;;;18.17;55.33;101171.19;5001932;28;45341;-93
2022/06/29 04:04:33;;;;;;;;;5.25;4.00;;;;;18.12;55.90;101178.47;5018786;28;45352;-94
2022/06/29 04:06:58;;;;;;;;;4.25;3.00;;;;;18.07;55.78;101173.47;5018586;28;47925;-93
2022/06/29 04:09:31;;;;;;;;;5.50;3.00;;;;;18.03;55.46;101179.81;5018394;28;50595;-94
2022/06/29 04:11:57;;;;;;;;;5.00;3.50;;;;;18.04;55.32;101178.06;5018448;28;45348;-93
2022/06/29 04:14:24;;;;;;;;;3.00;3.00;;;;;18.08;55.23;101169.91;5023581;28;45379;-92
2022/06/29 04:16:51;;;;;;;;;5.00;4.00;;;;;18.11;55.22;101171.53;5001187;28;48052;-93
2022/06/29 04:19:17;;;;;;;;;3.75;3.00;;;;;18.12;55.41;101171.41;5003120;28;46110;-92
2022/06/29 04:21:42;;;;;;;;;4.00;3.00;;;;;18.14;54.68;101168.72;5016806;28;45488;-92
2022/06/29 04:24:08;;;;;;;;;7.00;4.00;;;;;18.16;54.83;101170.34;5018133;28;45448;-93
2022/06/29 04:26:33;;;;;;;;;5.75;3.50;;;;;18.19;55.16;101178.06;5001392;28;47099;-93
2022/06/29 04:28:59;;;;;;;;;3.25;3.25;;;;;18.20;55.20;101168.38;5001538;28;45364;-92
2022/06/29 04:31:24;;;;;;;;;3.25;3.25;;;;;18.18;55.45;101167.59;5001328;28;45714;-93
2022/06/29 04:33:50;;;;;;;;;3.25;3.00;;;;;18.16;55.90;101167.72;5028255;28;64982;-94
2022/06/29 04:36:23;;;;;;;;;4.00;3.00;;;;;18.14;55.38;101164.28;5017619;28;46033;-95
2022/06/29 04:38:48;;;;;;;;;3.00;3.00;;;;;18.17;55.45;101172.03;5033921;28;60682;-94
2022/06/29 04:41:14;;;;;;;;;3.00;3.00;;;;;18.19;55.64;101171.97;5019231;28;45273;-93
2022/06/29 04:43:40;;;;;;;;;4.75;4.00;;;;;18.21;56.35;101166.59;5018828;28;45532;-94
2022/06/29 04:46:20;;;;;;;;;3.00;2.75;;;;;18.18;55.28;101164.97;5001102;28;48272;-93
2022/06/29 04:48:54;;;;;;;;;4.00;3.75;;;;;18.16;55.99;101170.34;5017803;28;45500;-93
2022/06/29 04:51:19;;;;;;;;;3.00;3.00;;;;;18.17;55.64;101168.56;5018307;28;45313;-94
2022/06/29 04:53:46;;;;;;;;;4.00;4.00;;;;;18.20;55.81;101171.00;5033729;28;45249;-93
2022/06/29 04:56:15;;;;;;;;;6.00;4.75;;;;;18.17;56.48;101172.03;5018991;28;45442;-93
2022/06/29 04:58:41;;;;;;;;;4.00;4.00;;;;;18.15;56.46;101175.69;5034215;28;45803;-93
2022/06/29 05:01:08;;;;;;;;;5.00;5.00;;;;;18.09;57.26;101173.38;5005970;28;45476;-93
2022/06/29 05:03:34;;;;;;;;;5.75;3.75;;;;;18.05;56.80;101169.19;5017766;28;45318;-93
2022/06/29 05:05:59;;;;;;;;;5.75;3.25;;;;;18.01;56.75;101165.88;5017600;28;46721;-94
2022/06/29 05:08:25;;;;;;;;;2.00;2.00;;;;;17.96;56.74;101171.41;5000757;28;45875;-93
2022/06/29 05:10:50;;;;;;;;;3.00;3.00;;;;;17.95;56.83;101166.22;5017238;28;45262;-93
2022/06/29 05:13:17;;;;;;;;;4.00;3.25;;;;;17.95;56.77;101167.06;5014950;28;45613;-92
2022/06/29 05:15:43;;;;;;;;;2.75;2.00;;;;;17.95;57.04;101168.84;5023151;28;47204;-94
2022/06/29 05:18:08;;;;;;;;;3.75;3.00;;;;;17.94;57.68;101157.47;5000544;28;58491;-94
2022/06/29 05:20:34;;;;;;;;;2.75;2.75;;;;;17.97;56.49;101159.94;5034244;28;45291;-93
2022/06/29 05:22:59;;;;;;;;;3.50;2.50;;;;;17.99;56.07;101165.13;5018820;28;44756;-93
2022/06/29 05:25:25;;;;;;;;;3.75;2.00;;;;;17.99;55.74;101171.22;5034354;28;48012;-93
2022/06/29 05:27:50;;;;;;;;;3.00;2.00;;;;;17.98;55.73;101166.06;5016458;28;45353;-92
2022/06/29 05:30:15;;;;;;;;;3.00;3.00;;;;;17.97;54.87;101169.63;4998894;28;45420;-92
2022/06/29 05:32:41;;;;;;;;;2.75;2.75;;;;;17.95;55.11;101167.06;5018812;28;45365;-93
2022/06/29 05:35:09;;;;;;;;;5.00;3.00;;;;;17.93;54.56;101161.03;5016340;28;47938;-91
2022/06/29 05:37:35;;;;;;;;;2.50;2.50;;;;;17.95;55.09;101174.13;5003469;28;45292;-92
2022/06/29 05:40:01;;;;;;;;;2.00;2.00;;;;;17.98;54.84;101174.81;4997392;28;45342;-93
2022/06/29 05:42:27;;;;;;;;;3.00;2.00;;;;;18.00;54.63;101180.00;5001828;28;45615;-94
2022/06/29 05:44:52;;;;;;;;;3.00;3.00;;;;;18.11;54.59;101169.75;5013569;28;47518;-93
2022/06/29 05:47:17;;;;;;;;;2.75;2.75;;;;;18.16;53.73;101175.63;4997090;28;45658;-94
2022/06/29 05:49:43;;;;;;;;;3.00;2.50;;;;;18.13;53.42;101174.94;5011980;28;45830;-92
2022/06/29 05:52:11;;;;;;;;;4.00;3.00;;;;;18.13;53.17;101169.66;5017750;28;45518;-93
2022/06/29 05:54:37;;;;;;;;;2.50;2.00;;;;;18.12;52.74;101160.88;5011820;28;46323;-92
2022/06/29 05:57:06;;;;;;;;;5.00;2.50;;;;;18.13;53.05;101162.59;5005012;28;45581;-90
2022/06/29 05:59:32;;;;;;;;;3.25;2.00;;;;;18.14;52.54;101169.56;5018267;28;45380;-92
2022/06/29 06:01:59;;;;;;;;;3.25;2.00;;;;;18.16;52.06;101169.47;5016415;28;45332;-93
2022/06/29 06:04:25;;;;;;;;;3.00;1.75;;;;;18.21;52.00;101163.97;5022132;28;45330;-92
2022/06/29 06:06:54;;;;;;;;;4.00;2.00;;;;;18.24;51.60;101163.78;5013753;28;45366;-89
2022/06/29 06:09:24;;;;;;;;;3.75;2.00;;;;;18.25;51.71;101161.06;4996451;28;45380;-88
2022/06/29 06:11:51;;;;;;;;;2.00;2.00;;;;;18.25;51.49;101168.13;5014958;28;45613;-89
2022/06/29 06:14:16;;;;;;;;;2.00;2.00;;;;;18.24;51.51;101163.78;4999499;28;48230;-89
2022/06/29 06:17:04;;;;;;;;;1.25;1.25;;;;;18.26;51.63;101168.06;5014991;28;45575;-90
2022/06/29 06:19:29;;;;;;;;;3.00;3.00;;;;;18.25;51.16;101168.13;5013460;28;45498;-93
2022/06/29 06:21:55;;;;;;;;;2.00;1.50;;;;;18.29;51.24;101159.97;5013671;28;45444;-91
2022/06/29 06:24:20;;;;;;;;;3.00;2.00;;;;;18.36;51.23;101169.25;5012797;28;49891;-92
2022/06/29 06:26:46;;;;;;;;;4.00;3.00;;;;;18.42;51.27;101169.84;5012435;28;45373;-91
2022/06/29 06:29:11;;;;;;;;;2.00;2.00;;;;;18.45;51.31;101169.69;5001253;28;45480;-89
2022/06/29 06:31:37;;;;;;;;;2.00;2.00;;;;;18.48;50.80;101180.03;5010446;28;45576;-90
2022/06/29 06:34:02;;;;;;;;;5.75;2.00;;;;;18.47;50.81;101170.44;4991790;28;47364;-90
2022/06/29 06:36:28;;;;;;;;;2.00;1.75;;;;;18.51;50.44;101174.63;5011284;28;45356;-90
2022/06/29 06:38:53;;;;;;;;;2.50;2.00;;;;;18.58;50.62;101179.47;4997006;28;45229;-90
2022/06/29 06:41:21;;;;;;;;;3.75;3.00;;;;;18.69;50.77;101178.88;5014375;28;62929;-90
2022/06/29 06:43:47;;;;;;;;;3.00;2.00;;;;;18.73;49.85;101180.38;5014370;28;45418;-91
2022/06/29 06:46:13;;;;;;;;;2.00;2.00;;;;;18.78;49.79;101172.22;4997820;28;45955;-90
2022/06/29 06:48:38;;;;;;;;;2.00;2.00;;;;;18.89;49.69;101172.50;5007559;28;45452;-90
2022/06/29 06:51:03;;;;;;;;;2.00;2.00;;;;;19.04;49.48;101168.13;4994345;28;47095;-90
2022/06/29 06:53:29;;;;;;;;;2.50;1.00;;;;;19.10;49.39;101165.13;5015356;28;47262;-90
2022/06/29 06:55:54;;;;;;;;;3.00;2.00;;;;;19.20;49.38;101162.81;5011168;28;45250;-90
2022/06/29 06:58:19;;;;;;;;;2.00;1.00;;;;;19.30;49.28;101169.25;5007313;28;45347;-90
2022/06/29 07:00:45;;;;;;;;;2.50;1.00;;;;;19.40;48.84;101160.78;4997763;28;45261;-90
2022/06/29 07:03:10;;;;;;;;;1.25;1.25;;;;;19.43;48.77;101166.75;4995090;28;47425;-90
2022/06/29 07:05:36;;;;;;;;;2.00;2.00;;;;;19.45;48.58;101169.28;5000463;28;47485;-91
2022/06/29 07:08:01;;;;;;;;;1.00;1.00;;;;;19.48;48.45;101166.47;5019766;28;45257;-90
2022/06/29 07:10:34;;;;;;;;;1.75;1.75;;;;;19.57;48.41;101167.72;4998663;28;54190;-91
2022/06/29 07:12:59;;;;;;;;;1.00;1.00;;;;;19.65;47.37;101166.31;5010632;28;45484;-91
2022/06/29 07:15:26;;;;;;;;;1.25;1.25;;;;;19.79;47.37;101165.50;5016423;28;45629;-91
2022/06/29 07:17:52;;;;;;;;;1.00;1.00;;;;;19.90;48.08;101167.50;5015411;28;45812;-91
2022/06/29 07:20:27;;;;;;;;;2.25;2.25;;;;;19.98;47.84;101161.72;5013237;28;51483;-90
2022/06/29 07:22:52;;;;;;;;;3.00;1.00;;;;;20.03;46.41;101171.06;5013650;28;47316;-91
2022/06/29 07:25:18;;;;;;;;;2.00;2.00;;;;;20.10;46.65;101172.38;5020831;28;45499;-92
2022/06/29 07:27:43;;;;;;;;;3.00;2.00;;;;;20.20;46.58;101172.66;4996352;28;62284;-91
2022/06/29 07:30:10;;;;;;;;;3.25;1.25;;;;;20.29;46.52;101171.25;5010368;28;45399;-86
2022/06/29 07:32:55;;;;;;;;;1.00;1.00;;;;;20.40;46.36;101171.41;5017556;28;48233;-94
2022/06/29 07:35:20;;;;;;;;;2.00;1.00;;;;;20.49;45.84;101159.41;5025826;28;45338;-96
2022/06/29 07:38:36;;;;;;;;;2.00;1.00;;;;;20.63;44.88;101166.47;5030166;28;45323;-95
2022/06/29 07:52:37;;;;;;;;;;;;;;;;;;;;;
2022/06/29 08:09:07;;;;;;;;;1.75;1.00;;;;;21.47;44.22;101157.44;5271113;22;46148;-96
2022/06/29 08:16:46;;;;;;;;;3.75;1.00;;;;;21.78;42.71;101157.94;5461651;22;46294;-96
2022/06/29 08:19:29;;;;;;;;;1.00;1.00;;;;;21.85;42.83;101156.56;5018170;28;48654;-92
2022/06/29 08:22:12;;;;;;;;;1.75;1.00;;;;;21.90;42.73;101150.94;5033030;28;45621;-96
2022/06/29 08:24:58;;;;;;;;;;;;;;;;;;;;;
2022/06/29 08:28:05;;;;;;;;;;;;;;;;;;;;;
2022/06/29 08:34:20;;;;;;;;;2.00;2.00;;;;;21.93;43.63;101134.84;5016907;28;45356;-96
2022/06/29 08:36:55;;;;;;;;;2.25;1.00;;;;;21.96;42.93;101129.31;4979827;28;45435;-96
2022/06/29 08:39:55;;;;;;;;;;;;;;;;;;;;;
2022/06/29 08:46:17;;;;;;;;;;;;;;;;;;;;;
2022/06/29 08:52:12;;;;;;;;;1.00;1.00;;;;;22.29;40.95;101136.72;4979759;28;46067;-96
2022/06/29 08:55:04;;;;;;;;;4.00;1.75;;;;;22.35;40.51;101143.38;5029087;28;48084;-95
2022/06/29 08:57:49;;;;;;;;;4.25;1.00;;;;;22.33;40.27;101132.88;5021245;28;45808;-96
2022/06/29 09:01:16;;;;;;;;;;;;;;;;;;;;;
2022/06/29 09:04:07;;;;;;;;;1.00;1.00;;;;;22.45;40.87;101141.72;5033188;22;45929;-96
2022/06/29 09:09:58;;;;;;;;;;;;;;;;;;;;;
2022/06/29 09:13:04;;;;;;;;;;;;;;;;;;;;;
2022/06/29 09:48:02;;;;;;;;;2.00;1.00;;;;;22.95;37.87;101155.72;5528726;22;46330;-96
2022/06/29 09:56:37;;;;;;;;;;;;;;;;;;;;;
2022/06/29 11:12:16;;;;;;;;;1.25;1.25;;;;;25.16;31.90;101085.97;4989503;28;45448;-96
2022/06/29 11:17:55;;;;;;;;;4.25;2.00;;;;;25.61;32.60;101074.16;5010055;28;45274;-92
2022/06/29 11:20:22;;;;;;;;;2.75;2.00;;;;;25.84;31.65;101083.66;4962590;28;47615;-91
2022/06/29 11:23:41;;;;;;;;;4.25;1.25;;;;;26.07;31.91;101070.97;4985623;28;45601;-93
2022/06/29 11:26:11;;;;;;;;;2.00;2.00;;;;;26.35;31.99;101068.47;4991517;28;46120;-89
2022/06/29 11:28:37;;;;;;;;;1.00;1.00;;;;;26.65;31.61;101069.34;5002534;28;51159;-91
2022/06/29 11:31:11;;;;;;;;;1.50;0.25;;;;;27.21;29.37;101068.59;4966755;28;45558;-92
2022/06/29 11:34:00;;;;;;;;;1.00;1.00;;;;;27.64;28.39;101073.50;5001097;28;45421;-91
2022/06/29 11:40:35;;;;;;;;;1.00;0.00;;;;;36.60;19.92;101081.78;4931646;28;45469;-96
2022/06/29 11:43:40;;;;;;;;;0.25;0.25;;;;;39.23;18.28;101092.88;4926806;28;45513;-96
2022/06/29 11:52:18;;;;;;;;;0.00;0.00;;;;;43.80;12.75;101096.94;4989239;28;48397;-93
2022/06/29 11:55:06;;;;;;;;;;;;;;;;;;;;;
2022/06/29 11:58:05;;;;;;;;;1.00;0.00;;;;;45.58;12.48;101089.41;4914390;28;76317;-95
2022/06/29 12:22:02;;;;;;;;;;;;;;;;;;;;;
2022/06/29 12:28:45;;;;;;;;;;;;;;;;;;;;;
2022/06/29 12:31:44;;;;;;;;;;;;;;;;;;;;;
2022/06/29 12:44:19;;;;;;;;;1.00;0.25;;;;;40.74;13.57;101026.56;4730034;30;45457;-92
2022/06/29 12:47:10;;;;;;;;;0.00;0.00;;;;;40.70;13.30;101019.94;4709315;30;45414;-90
2022/06/29 12:49:45;;;;;;;;;0.00;0.00;;;;;39.76;14.31;101027.94;4715897;29;47121;-92
2022/06/29 12:52:32;;;;;;;;;0.00;0.00;;;;;38.81;14.57;101021.91;4765232;29;45488;-91
2022/06/29 12:56:03;;;;;;;;;0.00;0.00;;;;;39.62;14.02;101025.41;4795147;29;45400;-94
2022/06/29 12:59:35;;;;;;;;;0.50;0.00;;;;;42.47;13.25;101022.03;4830187;29;45552;-92
2022/06/29 13:05:02;;;;;;;;;0.00;0.00;;;;;46.68;10.85;101018.50;4761687;29;45227;-92
2022/06/29 13:07:43;;;;;;;;;1.00;0.00;;;;;48.34;10.12;101026.34;4725387;29;45403;-93
2022/06/29 13:17:07;;;;;;;;;0.00;0.00;;;;;49.58;8.88;101011.81;4819078;29;45346;-92
2022/06/29 13:28:38;;;;;;;;;;;;;;;;;;;;;
2022/06/29 13:34:54;;;;;;;;;;;;;;;;;;;;;
2022/06/29 13:38:04;;;;;;;;;;;;;;;;;;;;;
2022/06/29 14:06:56;;;;;;;;;0.00;0.00;;;;;42.31;12.73;100963.53;6200888;22;1313962;-86
2022/06/29 14:09:22;;;;;;;;;0.00;0.00;;;;;44.05;12.55;100975.69;6251940;22;45388;-86
2022/06/29 14:11:53;;;;;;;;;0.00;0.00;;;;;45.38;10.70;100974.78;6279891;22;45429;-85
2022/06/29 14:14:19;;;;;;;;;0.50;0.50;;;;;43.42;11.09;100963.59;6225022;22;62203;-89
2022/06/29 14:16:47;;;;;;;;;0.00;0.00;;;;;40.74;12.97;100952.91;6284628;22;45338;-91
2022/06/29 14:19:12;;;;;;;;;0.00;0.00;;;;;38.49;15.01;100955.88;6259219;22;45353;-90
2022/06/29 14:21:38;;;;;;;;;0.00;0.00;;;;;36.61;16.49;100952.47;6258239;22;46987;-90
2022/06/29 14:24:04;;;;;;;;;0.00;0.00;;;;;35.08;17.71;100940.31;6261178;22;45305;-89
2022/06/29 14:26:29;;;;;;;;;0.00;0.00;;;;;34.29;19.86;100938.75;6290110;22;45196;-88
2022/06/29 14:28:57;;;;;;;;;0.00;0.00;;;;;35.11;19.04;100930.97;6288133;22;45491;-88
2022/06/29 14:31:23;;;;;;;;;0.00;0.00;;;;;36.31;18.98;100935.81;6264679;22;47792;-90
2022/06/29 14:33:52;;;;;;;;;0.75;0.00;;;;;37.77;17.09;100938.03;6238059;22;45424;-90
2022/06/29 14:36:17;;;;;;;;;0.00;0.00;;;;;39.33;16.18;100928.97;6258546;22;45259;-87
2022/06/29 14:38:43;;;;;;;;;0.00;0.00;;;;;40.26;14.39;100927.53;6267934;22;45363;-88
2022/06/29 14:41:09;;;;;;;;;0.00;0.00;;;;;41.04;14.11;100934.72;6272679;22;52703;-88
2022/06/29 14:43:35;;;;;;;;;0.00;0.00;;;;;41.20;14.74;100937.53;6273165;22;45078;-88
2022/06/29 14:46:00;;;;;;;;;2.50;0.50;;;;;41.64;14.44;100942.44;6247966;22;45407;-87
2022/06/29 14:48:29;;;;;;;;;1.00;0.00;;;;;41.76;13.56;100934.19;6273603;22;44776;-88
2022/06/29 14:50:55;;;;;;;;;0.00;0.00;;;;;41.91;13.25;100928.13;6270089;22;45678;-87
2022/06/29 14:53:21;;;;;;;;;0.00;0.00;;;;;41.80;13.32;100931.78;6253374;22;45384;-89
2022/06/29 14:55:47;;;;;;;;;0.00;0.00;;;;;41.69;13.07;100936.25;6253729;22;45294;-89
2022/06/29 14:58:25;;;;;;;;;1.00;1.00;;;;;41.34;13.49;100929.84;6253539;22;45360;-88
2022/06/29 15:00:50;;;;;;;;;0.00;0.00;;;;;40.38;14.98;100922.13;6227622;22;47850;-87
2022/06/29 15:03:27;;;;;;;;;2.50;0.00;;;;;39.47;15.57;100925.03;6246534;22;45288;-89
2022/06/29 15:05:59;;;;;;;;;0.00;0.00;;;;;38.08;15.83;100922.78;6236226;22;45483;-89
2022/06/29 15:08:24;;;;;;;;;1.00;0.00;;;;;36.99;17.33;100917.31;6239521;22;60559;-88
2022/06/29 15:10:53;;;;;;;;;0.00;0.00;;;;;36.73;18.08;100914.72;6240759;22;46445;-88
2022/06/29 15:13:18;;;;;;;;;1.25;0.00;;;;;36.79;18.26;100911.16;6241303;22;66113;-89
2022/06/29 15:15:46;;;;;;;;;1.50;0.00;;;;;36.37;17.41;100902.47;6244115;22;48415;-90
2022/06/29 15:18:12;;;;;;;;;1.00;0.00;;;;;35.82;18.67;100908.09;6164011;22;45375;-89
2022/06/29 15:20:37;;;;;;;;;0.25;0.00;;;;;34.99;18.97;100906.34;6241665;22;45445;-90
2022/06/29 15:23:03;;;;;;;;;0.25;0.00;;;;;34.42;20.76;100908.31;6241452;22;45371;-88
2022/06/29 15:25:31;;;;;;;;;2.00;0.00;;;;;34.44;20.87;100892.72;6216155;22;51758;-88
2022/06/29 15:27:57;;;;;;;;;0.25;0.25;;;;;34.39;20.63;100903.28;6240181;22;57873;-89
2022/06/29 15:30:28;;;;;;;;;1.00;0.00;;;;;34.04;21.02;100894.28;6269341;22;48026;-87
2022/06/29 15:32:56;;;;;;;;;0.50;0.50;;;;;33.93;21.09;100882.13;6216575;22;45509;-89
2022/06/29 15:40:53;;;;;;;;;0.00;0.00;;;;;32.56;22.25;100871.97;6243132;22;45310;-88
2022/06/29 15:43:24;;;;;;;;;0.00;0.00;;;;;32.27;23.27;100862.06;6240827;22;61928;-88
2022/06/29 15:45:56;;;;;;;;;1.00;1.00;;;;;31.98;24.44;100869.00;6242997;22;45453;-90
2022/06/29 15:48:24;;;;;;;;;0.00;0.00;;;;;31.81;23.78;100865.63;6241855;22;45311;-87
2022/06/29 15:50:53;;;;;;;;;1.00;1.00;;;;;31.72;23.54;100872.91;6241601;22;45366;-87
2022/06/29 16:00:17;;;;;;;;;;;;;;;;;;;;;
2022/06/29 16:06:40;;;;;;;;;;;;;;;;;;;;;
2022/06/29 16:10:00;;;;;;;;;;;;;;;;;;;;;
2022/06/29 16:16:13;;;;;;;;;0.00;0.00;;;;;30.53;25.56;100856.00;5898525;24;46335;-88
2022/06/29 16:18:39;;;;;;;;;0.00;0.00;;;;;30.49;25.56;100852.00;5872578;24;45343;-88
2022/06/29 16:21:17;;;;;;;;;0.00;0.00;;;;;30.47;25.71;100856.72;5950454;23;45437;-90
2022/06/29 16:24:06;;;;;;;;;0.50;0.50;;;;;30.15;26.29;100855.75;5976875;23;45450;-88
2022/06/29 16:26:31;;;;;;;;;0.00;0.00;;;;;29.94;26.41;100856.25;5976100;23;45464;-87
2022/06/29 16:28:57;;;;;;;;;0.00;0.00;;;;;29.86;26.47;100869.66;5951892;23;45281;-88
2022/06/29 16:31:25;;;;;;;;;0.50;0.50;;;;;29.71;26.59;100864.09;5954160;23;45252;-87
2022/06/29 16:33:51;;;;;;;;;0.00;0.00;;;;;29.48;27.09;100855.88;5975194;23;45368;-88
2022/06/29 16:36:16;;;;;;;;;0.00;0.00;;;;;29.35;27.43;100853.66;5983348;23;45495;-89
2022/06/29 16:38:41;;;;;;;;;1.75;0.00;;;;;29.31;28.47;100852.31;5987042;23;58847;-88